Time;durP1;ratioP1;P1;durP2;ratioP2;P2;SDS_P1;SDS_P2;PMS_P1;PMS_P2;Temp;Humidity;BMP_temperature;BMP_pressure;BME280_temperature;BME280_humidity;BME280_pressure;Samples;Min_cycle;Max_cycle;Signal;HPM_P1;HPM_P2
2022/06/21 00:00:08;;;;;;;4.13;2.20;;;;;;;21.36;100.00;100680.06;2064552;28;20414;-68
2022/06/21 00:01:16;;;;;;;3.57;2.27;;;;;;;21.31;100.00;100675.16;2064120;28;20413;-68
2022/06/21 00:02:18;;;;;;;3.03;2.00;;;;;;;21.37;100.00;100690.06;2063202;28;20548;-68
2022/06/21 00:03:22;;;;;;;3.47;2.13;;;;;;;21.34;100.00;100691.06;2063835;28;20417;-68
2022/06/21 00:04:23;;;;;;;5.57;2.50;;;;;;;21.29;100.00;100691.03;2063502;28;20410;-68
2022/06/21 00:05:28;;;;;;;3.30;2.07;;;;;;;21.21;100.00;100687.94;2064456;28;20424;-68
2022/06/21 00:06:29;;;;;;;4.63;2.43;;;;;;;21.23;100.00;100684.63;2064018;28;20172;-68
2022/06/21 00:07:30;;;;;;;3.83;2.20;;;;;;;21.18;100.00;100679.72;2064027;28;20404;-68
2022/06/21 00:08:35;;;;;;;3.67;2.50;;;;;;;21.06;100.00;100692.97;2064626;28;20687;-68
2022/06/21 00:09:35;;;;;;;3.47;2.10;;;;;;;21.11;100.00;100680.16;2064520;28;20667;-68
2022/06/21 00:10:36;;;;;;;3.73;2.20;;;;;;;21.13;100.00;100686.84;2064538;28;20790;-68
2022/06/21 00:11:37;;;;;;;4.20;2.20;;;;;;;20.85;100.00;100656.91;2064055;28;20390;-68
2022/06/21 00:12:37;;;;;;;7.53;2.73;;;;;;;21.04;100.00;100680.66;2064466;28;20224;-68
2022/06/21 00:13:37;;;;;;;7.33;2.93;;;;;;;21.03;100.00;100684.75;2064463;28;20181;-68
2022/06/21 00:14:39;;;;;;;5.93;2.27;;;;;;;20.99;100.00;100684.19;2064168;28;20531;-68
2022/06/21 00:15:40;;;;;;;5.23;2.80;;;;;;;20.94;100.00;100687.75;2064414;28;20252;-68
2022/06/21 00:16:41;;;;;;;5.43;2.63;;;;;;;20.88;100.00;100687.66;2064114;28;20989;-68
2022/06/21 00:17:46;;;;;;;4.87;2.53;;;;;;;20.89;100.00;100688.44;2063814;28;20802;-68
2022/06/21 00:18:48;;;;;;;6.43;2.43;;;;;;;20.86;100.00;100693.03;2064486;28;20707;-68
2022/06/21 00:19:49;;;;;;;4.17;2.47;;;;;;;20.81;100.00;100692.97;2064368;28;20956;-68
2022/06/21 00:20:50;;;;;;;5.27;2.43;;;;;;;20.85;100.00;100704.81;2064550;28;20426;-68
2022/06/21 00:21:51;;;;;;;4.17;2.30;;;;;;;20.84;100.00;100698.41;2063866;28;20810;-68
2022/06/21 00:22:52;;;;;;;2.80;2.00;;;;;;;20.84;100.00;100701.22;2064542;28;20178;-68
2022/06/21 00:23:54;;;;;;;6.83;2.40;;;;;;;20.86;100.00;100692.25;2063958;28;20209;-68
2022/06/21 00:24:54;;;;;;;4.00;2.30;;;;;;;20.88;100.00;100693.31;2064427;28;20178;-68
2022/06/21 00:25:56;;;;;;;5.20;2.77;;;;;;;20.83;100.00;100679.94;2064493;28;20412;-68
2022/06/21 00:26:56;;;;;;;5.07;2.50;;;;;;;20.91;100.00;100683.88;2063527;28;20189;-68
2022/06/21 00:27:57;;;;;;;3.17;2.10;;;;;;;20.92;100.00;100685.44;2063222;28;20424;-68
2022/06/21 00:28:58;;;;;;;3.10;2.27;;;;;;;20.45;100.00;100626.16;2064603;28;20202;-68
2022/06/21 00:29:58;;;;;;;4.13;2.27;;;;;;;20.82;100.00;100680.47;2064480;28;20668;-68
2022/06/21 00:30:59;;;;;;;3.40;2.17;;;;;;;20.81;100.00;100681.72;2063857;28;20838;-68
2022/06/21 00:31:59;;;;;;;3.40;2.33;;;;;;;20.76;100.00;100674.78;2064383;28;20180;-68
2022/06/21 00:33:00;;;;;;;4.90;2.13;;;;;;;20.88;100.00;100684.84;2064512;28;20212;-68
2022/06/21 00:34:13;;;;;;;7.90;2.20;;;;;;;20.10;100.00;100563.69;2063803;28;20330;-68
2022/06/21 00:35:19;;;;;;;3.87;2.53;;;;;;;20.86;100.00;100687.41;2064699;28;20614;-68
2022/06/21 00:36:29;;;;;;;3.37;2.23;;;;;;;20.83;100.00;100691.22;2064049;28;20913;-68
2022/06/21 00:37:31;;;;;;;3.10;2.33;;;;;;;20.88;100.00;100690.47;2063754;28;20420;-68
2022/06/21 00:38:33;;;;;;;5.77;2.60;;;;;;;20.91;100.00;100716.91;2064463;28;20439;-68
2022/06/21 00:39:33;;;;;;;2.63;2.17;;;;;;;20.92;100.00;100685.44;2064280;28;20432;-68
2022/06/21 00:40:34;;;;;;;4.87;2.20;;;;;;;20.97;100.00;100689.53;2064433;28;20439;-68
2022/06/21 00:41:43;;;;;;;5.47;2.70;;;;;;;20.97;100.00;100681.09;2063972;28;20344;-68
2022/06/21 00:42:46;;;;;;;4.67;2.80;;;;;;;20.76;100.00;100655.06;2064504;28;20171;-68
2022/06/21 00:43:51;;;;;;;4.13;2.50;;;;;;;20.92;100.00;100685.44;2060874;28;20430;-68
2022/06/21 00:45:05;;;;;;;4.90;2.40;;;;;;;20.91;100.00;100683.09;2062733;28;20910;-68
2022/06/21 00:46:39;;;;;;;5.77;2.70;;;;;;;20.84;100.00;100686.38;2064100;28;20417;-68
2022/06/21 00:47:45;;;;;;;4.00;2.30;;;;;;;20.18;100.00;100592.94;2063774;28;20425;-68
2022/06/21 00:48:48;;;;;;;3.57;2.33;;;;;;;20.84;100.00;100695.59;2064461;28;20394;-68
2022/06/21 00:49:57;;;;;;;4.77;2.43;;;;;;;20.83;100.00;100688.41;2064367;28;20409;-68
2022/06/21 00:51:08;;;;;;;4.40;2.50;;;;;;;20.83;100.00;100696.09;2056027;28;20414;-68
2022/06/21 00:52:22;;;;;;;4.63;2.40;;;;;;;20.84;100.00;100703.25;2056203;28;20934;-68
2022/06/21 00:53:33;;;;;;;4.87;2.27;;;;;;;20.87;100.00;100694.56;2056416;28;20421;-68
2022/06/21 00:54:56;;;;;;;4.53;2.40;;;;;;;20.81;100.00;100692.97;2056011;28;20814;-68
2022/06/21 00:56:03;;;;;;;5.33;2.40;;;;;;;20.91;100.00;100700.78;2057547;28;20501;-68
2022/06/21 00:57:12;;;;;;;8.33;3.00;;;;;;;20.91;100.00;100700.78;2057779;28;20409;-68
2022/06/21 00:58:15;;;;;;;5.97;2.67;;;;;;;20.87;100.00;100707.91;2057165;28;20410;-68
2022/06/21 00:59:26;;;;;;;4.43;2.70;;;;;;;20.87;100.00;100714.28;2058041;28;20410;-68
2022/06/21 01:00:57;;;;;;;3.47;2.40;;;;;;;20.25;100.00;100610.13;2057930;28;20916;-68
2022/06/21 01:02:02;;;;;;;7.87;2.90;;;;;;;20.90;100.00;100706.91;2057741;28;20438;-68
2022/06/21 01:03:19;;;;;;;4.07;3.07;;;;;;;20.92;100.00;100710.00;2065946;28;20414;-68
2022/06/21 01:04:41;;;;;;;4.70;3.13;;;;;;;20.90;100.00;100710.53;2065511;28;20919;-68
2022/06/21 01:05:45;;;;;;;2.90;2.37;;;;;;;20.87;100.00;100705.09;2065853;28;20421;-68
2022/06/21 01:06:51;;;;;;;3.10;2.63;;;;;;;20.81;100.00;100704.25;2065214;28;20503;-68
2022/06/21 01:07:56;;;;;;;8.80;2.93;;;;;;;20.66;100.00;100695.97;2064534;28;20484;-68
2022/06/21 01:09:02;;;;;;;4.87;2.47;;;;;;;20.86;100.00;100707.13;2065326;28;20421;-68
2022/06/21 01:10:09;;;;;;;4.33;2.80;;;;;;;20.88;100.00;100715.84;2065741;28;20842;-68
2022/06/21 01:11:17;;;;;;;3.93;2.60;;;;;;;20.85;100.00;100716.84;2065574;28;20841;-68
2022/06/21 01:12:26;;;;;;;6.00;2.73;;;;;;;20.87;100.00;100708.66;2065954;28;20845;-68
2022/06/21 01:13:31;;;;;;;8.97;2.60;;;;;;;20.94;100.00;100715.91;2065778;28;20409;-68
2022/06/21 01:14:35;;;;;;;5.33;2.70;;;;;;;20.92;100.00;100710.00;2065427;28;20462;-68
2022/06/21 01:15:40;;;;;;;4.53;2.60;;;;;;;20.95;100.00;100695.69;2065675;28;20437;-68
2022/06/21 01:16:41;;;;;;;5.63;2.67;;;;;;;21.12;100.00;100699.38;2065563;28;20424;-68
2022/06/21 01:17:42;;;;;;;4.37;3.00;;;;;;;21.12;100.00;100701.44;2065307;28;20425;-68
2022/06/21 01:18:44;;;;;;;3.93;2.70;;;;;;;21.12;100.00;100713.47;2065844;28;20225;-68
2022/06/21 01:19:48;;;;;;;6.33;3.17;;;;;;;21.01;100.00;100704.97;2065873;28;20664;-68
2022/06/21 01:20:53;;;;;;;5.90;2.93;;;;;;;20.91;100.00;100708.47;2065610;28;20429;-68
2022/06/21 01:22:05;;;;;;;5.83;2.47;;;;;;;20.80;100.00;100709.13;2065328;28;20420;-68
2022/06/21 01:23:39;;;;;;;4.43;2.67;;;;;;;20.80;100.00;100708.34;2065891;28;20412;-68
2022/06/21 01:24:51;;;;;;;4.07;2.70;;;;;;;20.79;100.00;100710.41;2065486;28;20417;-68
2022/06/21 01:26:28;;;;;;;3.03;2.70;;;;;;;20.79;100.00;100707.59;2065870;28;20405;-68
2022/06/21 01:27:29;;;;;;;4.70;2.53;;;;;;;20.75;100.00;100709.06;2065136;28;20409;-68
2022/06/21 01:28:30;;;;;;;5.53;2.97;;;;;;;20.72;100.00;100693.94;2065660;28;20421;-68
2022/06/21 01:29:33;;;;;;;5.33;2.77;;;;;;;20.76;100.00;100702.94;2065738;28;20509;-68
2022/06/21 01:30:34;;;;;;;3.60;2.83;;;;;;;20.80;100.00;100699.91;2065693;28;20445;-68
2022/06/21 01:31:35;;;;;;;5.07;2.77;;;;;;;20.76;100.00;100702.94;2065240;28;20425;-68
2022/06/21 01:32:36;;;;;;;4.20;2.80;;;;;;;20.75;100.00;100700.63;2065778;28;20175;-68
2022/06/21 01:33:40;;;;;;;2.77;2.57;;;;;;;20.82;100.00;100697.38;2064917;28;20230;-68
2022/06/21 01:34:40;;;;;;;5.03;2.50;;;;;;;20.86;100.00;100692.25;2064756;28;20497;-68
2022/06/21 01:35:48;;;;;;;5.07;2.97;;;;;;;20.77;100.00;100679.13;2064852;28;20472;-68
2022/06/21 01:36:54;;;;;;;6.77;3.00;;;;;;;20.88;100.00;100687.66;2064725;28;20601;-68
2022/06/21 01:37:56;;;;;;;6.93;3.00;;;;;;;20.35;100.00;100579.75;2065107;28;20979;-68
2022/06/21 01:39:04;;;;;;;5.07;2.67;;;;;;;21.09;100.00;100682.72;2065713;28;20804;-68
2022/06/21 01:40:12;;;;;;;5.20;2.87;;;;;;;21.05;100.00;100674.50;2065534;28;20525;-68
2022/06/21 01:41:20;;;;;;;7.80;2.83;;;;;;;19.98;100.00;100495.31;2065242;28;20524;-68
2022/06/21 01:42:25;;;;;;;3.50;2.70;;;;;;;21.20;100.00;100683.56;2065693;28;20406;-68
2022/06/21 01:43:28;;;;;;;3.27;2.40;;;;;;;21.12;100.00;100667.63;2065424;28;20410;-68
2022/06/21 01:44:34;;;;;;;4.70;2.60;;;;;;;21.24;100.00;100677.69;2065187;28;20427;-68
2022/06/21 01:45:47;;;;;;;4.23;2.67;;;;;;;21.24;100.00;100678.44;2065534;28;20876;-68
2022/06/21 01:46:48;;;;;;;6.03;2.70;;;;;;;21.29;100.00;100680.53;2065194;28;20432;-68
2022/06/21 01:48:05;;;;;;;4.33;2.63;;;;;;;21.33;100.00;100674.69;2065017;28;20429;-68
2022/06/21 01:49:11;;;;;;;4.63;3.00;;;;;;;21.35;100.00;100680.56;2065599;28;20710;-68
2022/06/21 01:50:12;;;;;;;6.00;2.90;;;;;;;21.33;100.00;100675.44;2065351;28;20513;-68
2022/06/21 01:51:23;;;;;;;4.23;2.60;;;;;;;21.41;100.00;100678.53;2064977;28;21150;-68
2022/06/21 01:52:28;;;;;;;4.80;2.70;;;;;;;20.82;100.00;100590.34;2065650;28;20169;-68
2022/06/21 01:53:29;;;;;;;5.10;2.80;;;;;;;20.80;100.00;100601.31;2065454;28;20426;-68
2022/06/21 01:54:35;;;;;;;3.83;2.37;;;;;;;21.40;100.00;100679.81;2065188;28;20428;-68
2022/06/21 01:55:45;;;;;;;4.87;3.00;;;;;;;21.42;100.00;100685.72;2065472;28;20406;-68
2022/06/21 01:56:48;;;;;;;5.43;2.60;;;;;;;21.41;100.00;100676.50;2065218;28;20410;-68
2022/06/21 01:57:50;;;;;;;4.37;2.67;;;;;;;21.42;100.00;100677.25;2064750;28;20426;-68
2022/06/21 01:59:06;;;;;;;6.93;2.73;;;;;;;21.08;100.00;100634.03;2065479;28;20429;-68
2022/06/21 02:00:07;;;;;;;3.83;2.53;;;;;;;21.43;100.00;100675.97;2065503;28;20455;-68
2022/06/21 02:01:20;;;;;;;4.67;2.50;;;;;;;20.77;100.00;100568.56;2065024;28;20924;-68
2022/06/21 02:02:26;;;;;;;3.00;2.57;;;;;;;21.48;100.00;100683.69;2065448;28;20401;-68
2022/06/21 02:03:31;;;;;;;4.77;2.50;;;;;;;21.15;100.00;100627.16;2065485;28;20489;-68
2022/06/21 02:04:38;;;;;;;4.87;2.60;;;;;;;21.46;100.00;100675.75;2065032;28;20520;-68
2022/06/21 02:05:44;;;;;;;4.53;2.40;;;;;;;21.42;100.00;100668.81;2065558;28;20504;-68
2022/06/21 02:06:46;;;;;;;5.30;2.57;;;;;;;20.80;100.00;100567.53;2064590;28;20467;-68
2022/06/21 02:07:56;;;;;;;6.40;2.50;;;;;;;21.47;100.00;100677.28;2064570;28;20405;-68
2022/06/21 02:09:04;;;;;;;3.03;2.30;;;;;;;21.50;100.00;100673.44;2065670;28;20406;-68
2022/06/21 02:10:10;;;;;;;5.00;2.80;;;;;;;21.45;100.00;100668.56;2064647;28;20440;-68
2022/06/21 02:11:18;;;;;;;3.20;2.30;;;;;;;21.38;100.00;100666.22;2056988;28;20789;-68
2022/06/21 02:12:18;;;;;;;4.00;2.50;;;;;;;21.17;100.00;100670.47;2064565;28;20850;-68
2022/06/21 02:13:32;;;;;;;4.27;2.60;;;;;;;21.19;100.00;100667.16;2065426;28;20413;-68
2022/06/21 02:14:41;;;;;;;2.57;2.37;;;;;;;21.30;100.00;100668.00;2065164;28;20197;-68
2022/06/21 02:15:58;;;;;;;4.43;2.77;;;;;;;21.22;100.00;100666.13;2065352;28;20488;-68
2022/06/21 02:17:01;;;;;;;5.50;3.00;;;;;;;21.35;100.00;100667.22;2065129;28;20394;-68
2022/06/21 02:18:06;;;;;;;4.27;2.63;;;;;;;21.36;100.00;100663.16;2064661;28;20972;-68
2022/06/21 02:19:13;;;;;;;7.57;2.50;;;;;;;21.04;100.00;100618.66;2064649;28;20946;-68
2022/06/21 02:20:23;;;;;;;5.93;2.77;;;;;;;21.38;100.00;100659.81;2064690;28;20406;-68
2022/06/21 02:21:32;;;;;;;5.10;2.90;;;;;;;21.35;100.00;100658.75;2064742;28;20911;-68
2022/06/21 02:22:34;;;;;;;6.87;2.97;;;;;;;21.35;100.00;100658.75;2065364;28;20939;-68
2022/06/21 02:23:35;;;;;;;3.87;2.63;;;;;;;21.36;100.00;100656.72;2065189;28;20425;-68
2022/06/21 02:24:35;;;;;;;3.77;2.90;;;;;;;21.31;100.00;100660.28;2064973;28;20452;-68
2022/06/21 02:25:36;;;;;;;5.50;2.73;;;;;;;21.35;100.00;100663.66;2065207;28;20214;-68
2022/06/21 02:26:37;;;;;;;6.73;3.00;;;;;;;21.35;100.00;100663.66;2064890;28;20272;-68
2022/06/21 02:27:37;;;;;;;5.50;2.70;;;;;;;21.37;100.00;100663.91;2064765;28;20178;-68
2022/06/21 02:28:38;;;;;;;2.83;2.20;;;;;;;21.24;100.00;100672.81;2065298;28;20445;-68
2022/06/21 02:29:41;;;;;;;4.20;2.50;;;;;;;21.11;100.00;100654.81;2065304;28;20182;-68
2022/06/21 02:30:43;;;;;;;2.63;2.43;;;;;;;21.24;100.00;100674.88;2065278;28;20178;-68
2022/06/21 02:31:44;;;;;;;3.93;2.60;;;;;;;20.62;100.00;100591.22;2064447;28;20486;-68
2022/06/21 02:32:45;;;;;;;3.70;2.60;;;;;;;21.09;100.00;100668.63;2064627;28;20425;-68
2022/06/21 02:33:48;;;;;;;4.90;2.90;;;;;;;20.80;100.00;100619.00;2064868;28;20937;-68
2022/06/21 02:34:54;;;;;;;3.07;2.57;;;;;;;21.23;100.00;100682.53;2065181;28;20178;-68
2022/06/21 02:35:59;;;;;;;5.87;2.30;;;;;;;21.21;100.00;100689.97;2065256;28;20448;-68
2022/06/21 02:37:02;;;;;;;9.10;3.37;;;;;;;20.97;100.00;100664.97;2064246;28;20416;-68
2022/06/21 02:38:08;;;;;;;12.87;4.00;;;;;;;21.11;100.00;100678.13;2063982;28;20424;-68
2022/06/21 02:39:15;;;;;;;13.47;3.70;;;;;;;21.10;100.00;100676.59;2065383;28;20433;-68
2022/06/21 02:40:38;;;;;;;9.73;3.20;;;;;;;21.09;100.00;100674.28;2064933;28;20417;-68
2022/06/21 02:41:42;;;;;;;7.67;3.00;;;;;;;21.13;100.00;100672.75;2064616;28;21054;-68
2022/06/21 02:42:45;;;;;;;8.03;2.90;;;;;;;21.01;100.00;100659.88;2065226;28;20425;-68
2022/06/21 02:43:51;;;;;;;14.63;3.73;;;;;;;21.22;100.00;100674.59;2064937;28;20409;-68
2022/06/21 02:44:56;;;;;;;10.53;4.00;;;;;;;21.17;100.00;100673.28;2064587;28;20456;-68
2022/06/21 02:46:04;;;;;;;15.27;4.03;;;;;;;21.38;100.00;100671.09;2064486;28;20421;-68
2022/06/21 02:47:11;;;;;;;13.10;3.60;;;;;;;21.13;100.00;100658.66;2064905;28;20397;-68
2022/06/21 02:48:20;;;;;;;9.10;2.67;;;;;;;21.37;100.00;100672.38;2064266;28;20401;-68
2022/06/21 02:49:26;;;;;;;7.67;2.60;;;;;;;21.36;100.00;100676.47;2065207;28;20402;-68
2022/06/21 02:50:34;;;;;;;5.93;2.10;;;;;;;21.30;100.00;100670.81;2065144;28;20412;-68
2022/06/21 02:51:50;;;;;;;8.87;3.07;;;;;;;21.29;100.00;100668.50;2064685;28;20962;-68
2022/06/21 02:52:53;;;;;;;9.43;2.47;;;;;;;21.30;100.00;100670.03;2065151;28;20410;-68
2022/06/21 02:54:11;;;;;;;10.60;3.03;;;;;;;21.28;100.00;100673.34;2064619;28;20456;-68
2022/06/21 02:55:35;;;;;;;4.90;2.60;;;;;;;21.25;100.00;100665.13;2065008;28;20402;-68
2022/06/21 02:56:45;;;;;;;5.30;2.80;;;;;;;21.25;100.00;100668.75;2064834;28;20413;-68
2022/06/21 02:58:04;;;;;;;5.73;2.40;;;;;;;21.28;100.00;100664.13;2064539;28;20508;-68
2022/06/21 02:59:04;;;;;;;4.97;2.37;;;;;;;21.25;100.00;100663.09;2065143;28;20855;-68
2022/06/21 03:00:12;;;;;;;4.57;2.17;;;;;;;20.81;100.00;100622.56;2064972;28;20413;-68
2022/06/21 03:01:24;;;;;;;6.83;2.63;;;;;;;21.19;100.00;100659.47;2064640;28;20166;-68
2022/06/21 03:02:28;;;;;;;8.80;2.77;;;;;;;21.21;100.00;100653.31;2064937;28;20923;-68
2022/06/21 03:03:32;;;;;;;6.07;2.30;;;;;;;20.46;100.00;100548.91;2064953;28;20508;-68
2022/06/21 03:04:40;;;;;;;5.60;2.47;;;;;;;21.12;100.00;100659.94;2064607;28;20428;-68
2022/06/21 03:05:40;;;;;;;4.53;2.53;;;;;;;21.07;100.00;100659.91;2064375;28;20438;-68
2022/06/21 03:06:41;;;;;;;4.13;2.20;;;;;;;20.43;100.00;100549.91;2063914;28;20434;-68
2022/06/21 03:07:47;;;;;;;8.00;2.40;;;;;;;21.19;100.00;100650.25;2064243;28;20565;-68
2022/06/21 03:08:57;;;;;;;5.03;2.63;;;;;;;21.19;100.00;100653.81;2065018;28;20318;-68
2022/06/21 03:09:59;;;;;;;6.93;2.53;;;;;;;21.21;100.00;100654.09;2064926;28;20833;-68
2022/06/21 03:11:00;;;;;;;11.70;3.60;;;;;;;21.17;100.00;100639.47;2063891;28;20425;-68
2022/06/21 03:12:04;;;;;;;13.87;3.70;;;;;;;21.15;100.00;100652.53;2064268;28;20922;-68
2022/06/21 03:13:23;;;;;;;17.77;3.70;;;;;;;21.12;100.00;100650.69;2064317;28;20182;-68
2022/06/21 03:14:27;;;;;;;7.83;2.30;;;;;;;21.04;100.00;100644.78;2064125;28;20946;-68
2022/06/21 03:15:27;;;;;;;6.43;2.60;;;;;;;20.26;100.00;100521.63;2064800;28;20463;-68
2022/06/21 03:16:28;;;;;;;6.00;2.20;;;;;;;20.72;100.00;100591.81;2064466;28;20923;-68
2022/06/21 03:17:54;;;;;;;5.10;2.10;;;;;;;21.13;100.00;100633.31;2064319;28;20217;-68
2022/06/21 03:18:58;;;;;;;4.63;2.27;;;;;;;21.20;100.00;100637.69;2064166;28;20636;-68
2022/06/21 03:19:58;;;;;;;4.50;2.20;;;;;;;21.26;100.00;100630.03;2064779;28;20512;-68
2022/06/21 03:21:03;;;;;;;3.20;2.10;;;;;;;21.31;100.00;100624.44;2064447;28;20953;-68
2022/06/21 03:22:14;;;;;;;8.47;2.50;;;;;;;21.35;100.00;100616.47;2063912;28;20190;-68
2022/06/21 03:23:15;;;;;;;5.00;2.00;;;;;;;21.06;100.00;100568.97;2064428;28;20414;-68
2022/06/21 03:24:19;;;;;;;6.37;2.77;;;;;;;21.47;100.00;100622.94;2064297;28;20417;-68
2022/06/21 03:25:23;;;;;;;5.93;2.43;;;;;;;21.50;100.00;100617.06;2064926;28;20228;-68
2022/06/21 03:26:26;;;;;;;4.27;2.00;;;;;;;21.56;100.00;100611.44;2064500;28;20424;-68
2022/06/21 03:27:48;;;;;;;4.30;2.50;;;;;;;21.55;100.00;100607.09;2064296;28;20504;-68
2022/06/21 03:28:51;;;;;;;4.67;2.37;;;;;;;21.57;100.00;100604.53;2064780;28;20398;-68
2022/06/21 03:29:52;;;;;;;2.93;2.13;;;;;;;21.59;100.00;100607.63;2064795;28;20423;-68
2022/06/21 03:31:05;;;;;;;2.53;1.97;;;;;;;21.63;100.00;100608.13;2064442;28;20428;-68
2022/06/21 03:32:06;;;;;;;3.50;2.10;;;;;;;21.68;100.00;100601.72;2064782;28;20618;-68
2022/06/21 03:33:06;;;;;;;2.73;2.10;;;;;;;21.67;100.00;100603.78;2064237;28;20441;-68
2022/06/21 03:34:12;;;;;;;4.20;2.00;;;;;;;21.68;100.00;100599.72;2055484;28;20194;-68
2022/06/21 03:35:14;;;;;;;4.20;2.00;;;;;;;21.19;100.00;100532.66;2056389;28;20167;-68
2022/06/21 03:36:22;;;;;;;2.90;1.90;;;;;;;21.71;100.00;100597.94;2056422;28;20469;-68
2022/06/21 03:37:22;;;;;;;5.70;2.10;;;;;;;21.74;100.00;100600.50;2056248;28;20632;-68
2022/06/21 03:38:24;;;;;;;2.43;2.00;;;;;;;21.86;100.00;100615.41;2056683;28;20481;-68
2022/06/21 03:42:05;;;;;;;4.23;2.30;;;;;;;21.96;100.00;100611.06;2056605;28;20395;-68
2022/06/21 03:43:23;;;;;;;4.10;2.00;;;;;;;20.98;100.00;100452.41;2056814;28;20924;-68
2022/06/21 03:44:34;;;;;;;2.47;1.90;;;;;;;22.00;100.00;100606.69;2056181;28;20166;-68
2022/06/21 03:45:38;;;;;;;3.73;2.10;;;;;;;21.87;100.00;100588.72;2064000;28;20441;-68
2022/06/21 03:46:47;;;;;;;3.00;2.20;;;;;;;22.03;100.00;100600.03;2063898;28;20674;-68
2022/06/21 03:47:54;;;;;;;4.33;2.07;;;;;;;21.45;100.00;100521.94;2064200;28;20421;-68
2022/06/21 03:49:04;;;;;;;4.30;1.83;;;;;;;22.07;100.00;100608.25;2064793;28;20419;-68
2022/06/21 03:50:06;;;;;;;4.13;2.17;;;;;;;22.05;100.00;100608.75;2064488;28;20982;-68
2022/06/21 03:51:11;;;;;;;3.90;1.90;;;;;;;22.05;100.00;100608.75;2064174;28;20421;-68
2022/06/21 03:52:41;;;;;;;3.90;1.83;;;;;;;22.11;100.00;100603.88;2064469;28;20789;-68
2022/06/21 03:53:53;;;;;;;2.93;1.80;;;;;;;21.99;100.00;100585.41;2064477;28;20441;-68
2022/06/21 03:54:53;;;;;;;3.30;2.30;;;;;;;22.21;100.00;100604.41;2064793;28;20447;-68
2022/06/21 03:56:16;;;;;;;7.03;2.00;;;;;;;22.21;100.00;100605.16;2064560;28;20464;-68
2022/06/21 03:57:33;;;;;;;4.03;2.20;;;;;;;22.27;100.00;100611.59;2064284;28;20165;-68
2022/06/21 03:58:37;;;;;;;3.43;2.00;;;;;;;22.30;100.00;100610.56;2063876;28;20557;-68
2022/06/21 03:59:42;;;;;;;5.10;2.43;;;;;;;22.24;100.00;100612.63;2063312;28;20465;-68
2022/06/21 04:00:53;;;;;;;6.37;2.40;;;;;;;22.32;100.00;100618.53;2063534;28;20429;-68
2022/06/21 04:02:03;;;;;;;5.60;2.80;;;;;;;22.32;100.00;100622.09;2064359;28;20413;-68
2022/06/21 04:03:09;;;;;;;8.97;3.27;;;;;;;22.01;100.00;100573.63;2064706;28;20820;-68
2022/06/21 04:04:45;;;;;;;12.53;3.37;;;;;;;22.44;100.00;100628.53;2063711;28;20181;-68
2022/06/21 04:05:51;;;;;;;7.83;3.17;;;;;;;22.49;100.00;100624.97;2033517;28;20707;-68
2022/06/21 04:06:59;;;;;;;9.33;3.40;;;;;;;22.56;100.00;100624.47;2056011;28;20839;-68
2022/06/21 04:08:16;;;;;;;13.00;3.33;;;;;;;22.53;100.00;100620.63;2055112;28;20217;-68
2022/06/21 04:09:29;;;;;;;8.90;3.03;;;;;;;22.57;100.00;100628.81;2057033;28;20231;-68
2022/06/21 04:10:47;;;;;;;9.50;3.17;;;;;;;22.58;100.00;100622.66;2063622;28;20457;-68
2022/06/21 04:12:21;;;;;;;9.47;2.93;;;;;;;22.70;100.00;100626.22;2063916;28;20483;-68
2022/06/21 04:13:36;;;;;;;10.43;3.20;;;;;;;22.76;100.00;100630.59;2063757;28;20426;-68
2022/06/21 04:14:36;;;;;;;7.03;3.33;;;;;;;22.81;100.00;100631.88;2063702;28;20435;-68
2022/06/21 04:15:54;;;;;;;6.40;2.93;;;;;;;22.83;100.00;100624.41;2064370;28;20273;-68
2022/06/21 04:17:01;;;;;;;5.57;2.60;;;;;;;22.85;100.00;100623.91;2064293;28;20166;-68
2022/06/21 04:18:28;;;;;;;8.07;2.70;;;;;;;22.51;100.00;100619.59;2063707;28;20185;-68
2022/06/21 04:19:36;;;;;;;6.10;2.53;;;;;;;22.45;100.00;100621.63;2061742;28;20444;-68
2022/06/21 04:20:49;;;;;;;7.07;3.07;;;;;;;22.42;100.00;100622.63;2061159;28;20166;-68
2022/06/21 04:22:06;;;;;;;6.07;2.43;;;;;;;22.46;100.00;100626.75;2061554;28;20538;-68
2022/06/21 04:23:18;;;;;;;5.00;2.57;;;;;;;22.51;100.00;100617.53;2058815;28;20185;-68
2022/06/21 04:24:32;;;;;;;5.37;2.80;;;;;;;22.59;100.00;100626.25;2062479;28;20287;-68
2022/06/21 04:25:37;;;;;;;5.13;2.47;;;;;;;22.61;100.00;100624.44;2063388;28;20192;-68
2022/06/21 04:26:51;;;;;;;4.73;2.60;;;;;;;22.04;100.00;100527.44;2063518;28;20197;-68
2022/06/21 04:28:10;;;;;;;5.20;2.70;;;;;;;22.68;100.00;100623.91;2062947;28;20682;-68
2022/06/21 04:29:19;;;;;;;4.33;2.50;;;;;;;22.74;100.00;100627.53;2064009;28;20190;-68
2022/06/21 04:30:52;;;;;;;4.23;2.37;;;;;;;22.74;100.00;100612.63;2063382;28;20312;-68
2022/06/21 04:32:00;;;;;;;4.17;2.30;;;;;;;22.84;100.00;100625.97;2051547;28;20198;-69
2022/06/21 04:33:30;;;;;;;4.97;3.07;;;;;;;22.91;100.00;100628.25;2065741;28;20182;-69
2022/06/21 04:34:39;;;;;;;4.30;2.73;;;;;;;22.95;100.00;100630.81;2062810;28;20657;-68
2022/06/21 04:35:50;;;;;;;5.17;2.70;;;;;;;22.98;100.00;100630.53;2065008;28;20672;-68
2022/06/21 04:36:58;;;;;;;7.60;2.40;;;;;;;23.04;100.00;100630.53;2064947;28;20178;-68
2022/06/21 04:38:07;;;;;;;3.20;2.33;;;;;;;22.60;100.00;100589.03;2060080;28;20178;-68
2022/06/21 04:39:30;;;;;;;6.47;2.50;;;;;;;23.08;100.00;100636.69;2062498;28;20179;-69
2022/06/21 04:40:57;;;;;;;6.17;2.80;;;;;;;23.07;100.00;100641.56;2063196;28;20644;-68
2022/06/21 04:42:10;;;;;;;6.73;3.07;;;;;;;23.00;100.00;100636.47;2062276;28;20445;-68
2022/06/21 04:43:22;;;;;;;6.43;2.90;;;;;;;22.77;100.00;100600.31;2065271;28;20533;-68
2022/06/21 04:44:31;;;;;;;4.27;2.73;;;;;;;23.08;100.00;100648.00;2060471;28;20178;-68
2022/06/21 04:45:39;;;;;;;4.77;3.10;;;;;;;23.04;100.00;100648.28;2058508;28;20221;-68
2022/06/21 04:47:01;;;;;;;4.07;2.77;;;;;;;23.11;100.00;100644.13;2063327;28;20233;-68
2022/06/21 04:48:20;;;;;;;3.83;2.63;;;;;;;23.20;100.00;100646.72;2063394;28;20182;-68
2022/06/21 04:49:28;;;;;;;4.33;2.53;;;;;;;23.23;100.00;100657.75;2062119;28;20232;-68
2022/06/21 04:50:46;;;;;;;7.67;2.50;;;;;;;23.27;100.00;100640.50;2063511;28;20273;-68
2022/06/21 04:51:55;;;;;;;4.03;2.60;;;;;;;23.33;100.00;100636.38;2061876;28;20213;-68
2022/06/21 04:53:23;;;;;;;4.17;2.20;;;;;;;22.72;100.00;100530.47;2063525;28;20617;-68
2022/06/21 04:54:26;;;;;;;4.87;2.20;;;;;;;23.44;100.00;100629.94;2063979;28;20667;-68
2022/06/21 04:55:52;;;;;;;3.80;2.70;;;;;;;23.46;100.00;100636.59;2064154;28;20193;-69
2022/06/21 04:57:07;;;;;;;4.13;2.00;;;;;;;23.46;100.00;100633.78;2053630;28;20189;-69
2022/06/21 04:58:10;;;;;;;4.73;2.50;;;;;;;23.44;100.00;100642.00;2063347;28;20178;-68
2022/06/21 04:59:24;;;;;;;3.73;2.00;;;;;;;23.53;100.00;100640.91;2064578;28;20182;-69
2022/06/21 05:00:25;;;;;;;3.50;2.60;;;;;;;23.59;100.00;100636.03;2063439;28;20170;-70
2022/06/21 05:01:37;;;;;;;4.97;2.73;;;;;;;22.40;100.00;100456.56;2063151;28;20178;-70
2022/06/21 05:02:42;;;;;;;5.57;2.30;;;;;;;23.68;100.00;100644.19;2062216;28;20747;-69
2022/06/21 05:03:43;;;;;;;3.57;2.30;;;;;;;23.73;100.00;100643.41;2063849;28;20735;-69
2022/06/21 05:04:46;;;;;;;10.40;2.70;;;;;;;23.35;100.00;100582.91;2064061;28;20184;-69
2022/06/21 05:05:47;;;;;;;8.70;2.60;;;;;;;23.34;100.00;100584.19;2055041;28;20451;-68
2022/06/21 05:06:49;;;;;;;6.13;2.73;;;;;;;23.43;100.00;100591.63;2063277;28;20477;-69
2022/06/21 05:07:58;;;;;;;12.13;2.50;;;;;;;23.85;100.00;100639.97;2059846;28;20958;-68
2022/06/21 05:08:59;;;;;;;5.27;2.60;;;;;;;23.94;100.00;100647.41;2061092;28;20480;-68
2022/06/21 05:10:00;;;;;;;4.97;2.30;;;;;;;23.84;100.00;100624.28;2061482;28;20249;-68
2022/06/21 05:11:02;;;;;;;4.20;2.30;;;;;;;23.97;100.00;100644.34;2060728;28;20910;-68
2022/06/21 05:12:03;;;;;;;5.80;2.80;;;;;;;24.03;100.00;100635.78;2062221;28;20580;-68
2022/06/21 05:13:11;;;;;;;6.30;2.47;;;;;;;24.07;100.00;100637.06;2062718;28;20221;-69